Time;durP1;ratioP1;P1;durP2;ratioP2;P2;SDS_P1;SDS_P2;PMS_P1;PMS_P2;Temp;Humidity;BMP_temperature;BMP_pressure;BME280_temperature;BME280_humidity;BME280_pressure;Samples;Min_cycle;Max_cycle;Signal;HPM_P1;HPM_P2
2023/10/16 00:00:45;;;;;;;3.72;3.30;;;6.20;99.90;;;;;;5047578;28;20447;-73
2023/10/16 00:03:13;;;;;;;4.18;3.60;;;6.20;99.90;;;;;;5046981;28;20437;-73
2023/10/16 00:05:45;;;;;;;5.30;3.90;;;6.20;99.90;;;;;;5046633;28;20429;-73
2023/10/16 00:08:16;;;;;;;5.87;4.10;;;6.20;99.90;;;;;;5047850;28;20489;-73
2023/10/16 00:10:43;;;;;;;5.50;4.20;;;6.20;99.90;;;;;;5047499;28;20417;-73
2023/10/16 00:13:11;;;;;;;5.50;3.90;;;6.20;99.90;;;;;;5046126;28;20451;-72
2023/10/16 00:15:44;;;;;;;5.50;4.07;;;6.10;99.90;;;;;;5046745;28;20513;-73
2023/10/16 00:18:17;;;;;;;6.25;4.20;;;6.10;99.90;;;;;;5042092;28;20449;-73
2023/10/16 00:20:44;;;;;;;4.97;3.70;;;6.10;99.90;;;;;;5046087;28;20436;-73
2023/10/16 00:23:12;;;;;;;5.80;4.35;;;6.00;99.90;;;;;;5048008;28;20421;-73
2023/10/16 00:25:40;;;;;;;4.35;3.70;;;6.00;99.90;;;;;;5047061;28;20904;-73
2023/10/16 00:28:07;;;;;;;5.40;4.20;;;6.00;99.90;;;;;;5047585;28;20441;-73
2023/10/16 00:30:34;;;;;;;4.60;4.10;;;5.90;99.90;;;;;;5045726;28;20440;-72
2023/10/16 00:33:01;;;;;;;5.72;4.60;;;5.90;99.90;;;;;;5047876;28;20823;-72
2023/10/16 00:35:28;;;;;;;5.80;4.85;;;5.90;99.90;;;;;;5044984;28;20425;-72
2023/10/16 00:37:56;;;;;;;5.33;4.70;;;5.80;99.90;;;;;;5048044;28;20409;-72
2023/10/16 00:40:32;;;;;;;5.55;4.78;;;5.80;99.90;;;;;;5047163;28;20918;-72
2023/10/16 00:43:06;;;;;;;7.30;4.60;;;5.80;99.90;;;;;;5042084;28;20488;-73
2023/10/16 00:45:36;;;;;;;5.50;4.90;;;5.90;99.90;;;;;;5045565;28;20730;-72
2023/10/16 00:48:06;;;;;;;6.55;5.07;;;5.90;99.90;;;;;;5045689;28;20462;-72
2023/10/16 00:50:34;;;;;;;7.90;5.40;;;5.90;99.90;;;;;;5044810;28;20447;-72
2023/10/16 00:53:01;;;;;;;5.00;4.23;;;5.90;99.90;;;;;;5047359;28;20468;-72
2023/10/16 00:55:29;;;;;;;4.90;4.40;;;5.90;99.90;;;;;;5046329;28;20830;-72
2023/10/16 00:57:57;;;;;;;7.88;5.13;;;5.90;99.90;;;;;;5046582;28;20413;-72
2023/10/16 01:00:25;;;;;;;6.35;4.75;;;5.90;99.90;;;;;;5046314;28;20490;-72
2023/10/16 01:02:51;;;;;;;5.78;5.15;;;5.90;99.90;;;;;;5045333;28;20446;-72
2023/10/16 01:05:23;;;;;;;5.97;4.70;;;5.80;99.90;;;;;;5045737;28;20920;-72
2023/10/16 01:07:50;;;;;;;7.68;5.10;;;5.80;99.90;;;;;;5046416;28;20432;-72
2023/10/16 01:10:20;;;;;;;5.38;4.88;;;5.80;99.90;;;;;;5039918;28;20990;-72
2023/10/16 01:12:55;;;;;;;5.60;4.90;;;5.80;99.90;;;;;;5047131;28;20417;-72
2023/10/16 01:15:22;;;;;;;8.70;5.60;;;5.80;99.90;;;;;;5049309;28;20432;-72
2023/10/16 01:17:50;;;;;;;5.40;4.90;;;5.80;99.90;;;;;;5050406;28;20448;-72
2023/10/16 01:20:18;;;;;;;5.57;5.07;;;5.80;99.90;;;;;;5045117;28;20429;-72
2023/10/16 01:22:45;;;;;;;5.70;4.93;;;5.80;99.90;;;;;;5050057;28;20459;-72
2023/10/16 01:25:14;;;;;;;6.28;5.68;;;5.80;99.90;;;;;;5048343;28;20844;-72
2023/10/16 01:27:42;;;;;;;5.93;5.32;;;5.80;99.90;;;;;;5050504;28;20417;-72
2023/10/16 01:30:10;;;;;;;7.40;5.73;;;5.80;99.90;;;;;;5049505;28;20516;-72
2023/10/16 01:32:38;;;;;;;5.93;5.15;;;5.90;99.90;;;;;;5048000;28;20437;-72
2023/10/16 01:35:08;;;;;;;5.93;5.32;;;5.90;99.90;;;;;;5047393;28;20504;-72
2023/10/16 01:37:38;;;;;;;5.80;5.20;;;5.90;99.90;;;;;;5049963;28;20521;-71
2023/10/16 01:40:23;;;;;;;6.10;5.50;;;5.80;99.90;;;;;;5049982;28;20791;-71
2023/10/16 01:42:53;;;;;;;6.38;5.68;;;5.80;99.90;;;;;;5050132;28;20428;-71
2023/10/16 01:45:21;;;;;;;6.53;5.93;;;5.80;99.90;;;;;;5049416;28;20414;-71
2023/10/16 01:47:48;;;;;;;6.80;6.20;;;5.80;99.90;;;;;;5049398;28;20437;-71
2023/10/16 01:50:21;;;;;;;7.75;6.72;;;5.80;99.90;;;;;;5045679;28;20514;-71
2023/10/16 01:52:47;;;;;;;7.88;7.07;;;5.70;99.90;;;;;;5049689;28;20428;-71
2023/10/16 01:55:16;;;;;;;9.38;7.63;;;5.70;99.90;;;;;;5049333;28;20935;-71
2023/10/16 01:57:44;;;;;;;8.00;7.30;;;5.70;99.90;;;;;;5049802;28;20417;-71
2023/10/16 02:00:16;;;;;;;7.63;6.93;;;5.70;99.90;;;;;;5042435;28;20915;-71
2023/10/16 02:02:43;;;;;;;7.75;6.95;;;5.70;99.90;;;;;;5049035;28;20429;-71
2023/10/16 02:05:13;;;;;;;7.70;7.00;;;5.70;99.90;;;;;;5047947;28;20429;-71
2023/10/16 02:07:42;;;;;;;7.68;6.90;;;5.70;99.90;;;;;;5049240;28;20522;-71
2023/10/16 02:10:12;;;;;;;7.60;6.90;;;5.60;99.90;;;;;;5048735;28;20520;-71
2023/10/16 02:12:39;;;;;;;8.43;7.63;;;5.60;99.90;;;;;;5049860;28;20479;-71
2023/10/16 02:15:08;;;;;;;7.90;7.20;;;5.60;99.90;;;;;;5048074;28;20929;-70
2023/10/16 02:17:37;;;;;;;8.23;7.43;;;5.60;99.90;;;;;;5049319;28;20413;-70
2023/10/16 02:20:11;;;;;;;8.80;7.30;;;5.60;99.90;;;;;;5046794;28;20441;-71
2023/10/16 02:22:38;;;;;;;8.13;7.30;;;5.60;99.90;;;;;;5048859;28;20436;-71
2023/10/16 02:25:08;;;;;;;9.00;7.20;;;5.60;99.90;;;;;;5049406;28;20887;-70
2023/10/16 02:27:35;;;;;;;8.05;7.22;;;5.60;99.90;;;;;;5048021;28;20433;-70
2023/10/16 02:30:15;;;;;;;7.90;6.90;;;5.60;99.90;;;;;;5047937;28;20452;-71
2023/10/16 02:32:43;;;;;;;7.30;6.53;;;5.50;99.90;;;;;;5045632;28;20461;-71
2023/10/16 02:35:13;;;;;;;7.88;7.07;;;5.50;99.90;;;;;;5046233;28;20436;-71
2023/10/16 02:37:40;;;;;;;6.95;6.25;;;5.50;99.90;;;;;;5048767;28;20456;-71
2023/10/16 02:40:11;;;;;;;8.07;6.75;;;5.50;99.90;;;;;;5043342;28;20425;-71
2023/10/16 02:42:41;;;;;;;8.35;6.40;;;5.40;99.90;;;;;;5049357;28;20432;-71
2023/10/16 02:45:23;;;;;;;7.20;6.50;;;5.40;99.90;;;;;;5048575;28;20426;-71
2023/10/16 02:47:52;;;;;;;6.93;6.22;;;5.30;99.90;;;;;;5048538;28;20508;-71
2023/10/16 02:50:19;;;;;;;7.50;6.80;;;5.30;99.90;;;;;;5046636;28;20436;-71
2023/10/16 02:52:47;;;;;;;6.72;6.13;;;5.30;99.90;;;;;;5048845;28;20429;-71
2023/10/16 02:55:14;;;;;;;7.97;6.40;;;5.30;99.90;;;;;;5048808;28;20498;-71
2023/10/16 02:57:42;;;;;;;7.72;6.30;;;5.30;99.90;;;;;;5048936;28;20420;-71
2023/10/16 03:00:17;;;;;;;9.50;6.67;;;5.20;99.90;;;;;;5047448;28;20487;-71
2023/10/16 03:02:46;;;;;;;9.40;6.30;;;5.20;99.90;;;;;;5048769;28;20417;-71
2023/10/16 03:05:21;;;;;;;6.70;6.10;;;5.30;99.90;;;;;;5046750;28;20480;-71
2023/10/16 03:07:49;;;;;;;7.13;5.80;;;5.30;99.90;;;;;;5045663;28;20433;-71
2023/10/16 03:10:17;;;;;;;6.30;5.70;;;5.30;99.90;;;;;;5047612;28;20517;-71
2023/10/16 03:12:43;;;;;;;8.80;6.33;;;5.30;99.90;;;;;;5048366;28;20449;-72
2023/10/16 03:15:15;;;;;;;7.45;6.30;;;5.20;99.90;;;;;;5047909;28;20426;-71
2023/10/16 03:17:42;;;;;;;6.80;6.10;;;5.20;99.90;;;;;;5048101;28;20462;-73
2023/10/16 03:20:19;;;;;;;8.87;6.87;;;5.20;99.90;;;;;;5046064;28;20441;-71
2023/10/16 03:22:48;;;;;;;8.68;7.18;;;5.20;99.90;;;;;;5048205;28;20429;-72
2023/10/16 03:25:25;;;;;;;7.20;6.50;;;5.20;99.90;;;;;;5047679;28;20444;-72
2023/10/16 03:27:55;;;;;;;8.90;7.20;;;5.20;99.90;;;;;;5048043;28;20812;-72
2023/10/16 03:30:21;;;;;;;8.25;6.35;;;5.20;99.90;;;;;;5047491;28;20420;-72
2023/10/16 03:32:48;;;;;;;8.27;7.00;;;5.20;99.90;;;;;;5047563;28;20421;-72
2023/10/16 03:35:21;;;;;;;7.30;6.60;;;5.20;99.90;;;;;;5047021;28;20447;-71
2023/10/16 03:37:51;;;;;;;7.93;6.37;;;5.20;99.90;;;;;;5048119;28;20491;-71
2023/10/16 03:40:19;;;;;;;7.40;6.50;;;5.10;99.90;;;;;;5044193;28;20424;-71
2023/10/16 03:42:46;;;;;;;7.10;6.40;;;5.10;99.90;;;;;;5040837;28;20471;-71
2023/10/16 03:45:14;;;;;;;7.57;6.37;;;5.10;99.90;;;;;;5047287;28;20477;-70
2023/10/16 03:47:42;;;;;;;7.40;6.70;;;5.10;99.90;;;;;;5046157;28;20433;-70
2023/10/16 03:50:09;;;;;;;7.68;6.97;;;5.10;99.90;;;;;;5046068;28;20448;-70
2023/10/16 03:52:36;;;;;;;7.78;6.50;;;5.10;99.90;;;;;;5047839;28;20425;-70
2023/10/16 03:55:22;;;;;;;7.40;6.60;;;5.10;99.90;;;;;;5048208;28;20800;-72
2023/10/16 03:57:50;;;;;;;8.05;7.03;;;5.10;99.90;;;;;;5048103;28;20663;-71
2023/10/16 04:00:18;;;;;;;8.45;6.72;;;5.10;99.90;;;;;;5047804;28;20429;-71
2023/10/16 04:02:46;;;;;;;6.72;6.03;;;5.10;99.90;;;;;;5046954;28;20434;-71
2023/10/16 04:08:10;;;;;;;7.18;6.47;;;5.00;99.90;;;;;;5100435;27;20361;-75
2023/10/16 04:10:40;;;;;;;8.20;6.43;;;5.00;99.90;;;;;;5088039;28;20414;-76
2023/10/16 04:13:07;;;;;;;8.02;6.30;;;5.00;99.90;;;;;;5081600;28;20897;-75
2023/10/16 04:15:59;;;;;;;7.18;6.47;;;5.00;99.90;;;;;;5081036;28;20459;-76
2023/10/16 04:18:30;;;;;;;7.55;6.38;;;5.00;99.90;;;;;;5078535;28;20916;-74
2023/10/16 04:21:29;;;;;;;7.70;6.35;;;5.00;99.90;;;;;;5077071;28;20427;-77
2023/10/16 04:23:57;;;;;;;6.75;6.10;;;5.00;99.90;;;;;;5080588;28;20422;-74
2023/10/16 04:26:47;;;;;;;6.95;6.18;;;5.00;99.90;;;;;;5053145;22;20532;-71
2023/10/16 04:29:25;;;;;;;7.00;6.30;;;4.90;99.90;;;;;;5039154;28;20513;-71
2023/10/16 04:34:34;;;;;;;8.00;7.20;;;4.90;99.90;;;;;;5036136;28;20498;-71
2023/10/16 04:43:03;;;;;;;8.15;7.35;;;4.90;99.90;;;;;;5008965;28;20493;-71
2023/10/16 04:45:39;;;;;;;7.40;6.70;;;4.80;99.90;;;;;;5027763;28;20886;-71
2023/10/16 04:48:23;;;;;;;9.30;8.10;;;4.80;99.90;;;;;;5019818;28;20504;-71
2023/10/16 04:53:47;;;;;;;11.40;9.80;;;4.70;99.90;;;;;;5019572;28;21008;-71
2023/10/16 04:56:17;;;;;;;10.70;9.70;;;4.70;99.90;;;;;;5011075;28;20753;-70
2023/10/16 04:58:59;;;;;;;12.23;9.95;;;4.70;99.90;;;;;;5024190;28;20419;-71
2023/10/16 05:01:55;;;;;;;11.70;10.48;;;4.60;99.90;;;;;;5013696;28;20498;-70
2023/10/16 05:07:16;;;;;;;14.75;12.40;;;4.60;99.90;;;;;;5015830;28;20442;-71
2023/10/16 05:10:12;;;;;;;56.58;16.77;;;4.60;99.90;;;;;;5017861;28;20586;-71
2023/10/16 05:15:51;;;;;;;30.07;15.80;;;4.60;99.90;;;;;;5015405;28;20435;-70
2023/10/16 05:18:42;;;;;;;19.95;14.25;;;4.60;99.90;;;;;;5016966;28;20774;-69
2023/10/16 05:21:19;;;;;;;68.32;18.10;;;4.60;99.90;;;;;;5001766;28;20948;-69
2023/10/16 06:16:03;;;;;;;13.00;11.20;;;4.70;99.90;;;;;;4958031;28;20438;-71
2023/10/16 06:18:31;;;;;;;12.90;11.50;;;4.70;99.90;;;;;;4992015;28;20993;-71
2023/10/16 06:21:00;;;;;;;11.88;10.77;;;4.70;99.90;;;;;;5006295;28;20960;-70
2023/10/16 06:23:28;;;;;;;11.00;10.00;;;4.70;99.90;;;;;;5005242;28;20438;-72
2023/10/16 06:25:55;;;;;;;11.63;10.52;;;4.60;99.90;;;;;;5003454;28;20516;-71
2023/10/16 06:28:22;;;;;;;11.27;10.18;;;4.60;99.90;;;;;;5005213;28;20499;-71
2023/10/16 06:30:49;;;;;;;11.52;10.50;;;4.60;99.90;;;;;;5013909;28;20451;-71
2023/10/16 06:33:16;;;;;;;11.85;10.75;;;4.60;99.90;;;;;;5007913;28;20752;-72
2023/10/16 06:35:44;;;;;;;10.90;9.90;;;4.60;99.90;;;;;;5012271;28;20527;-73
2023/10/16 06:38:11;;;;;;;10.98;10.00;;;4.60;99.90;;;;;;5004665;28;20723;-71
2023/10/16 06:40:40;;;;;;;10.70;9.60;;;4.60;99.90;;;;;;5011680;28;20753;-71
2023/10/16 06:43:14;;;;;;;11.73;10.63;;;4.60;99.90;;;;;;5004420;28;20438;-71
2023/10/16 06:45:42;;;;;;;8.85;7.95;;;4.60;99.90;;;;;;4995131;28;20432;-71
2023/10/16 06:48:14;;;;;;;10.80;9.70;;;4.60;99.90;;;;;;5003442;28;20856;-71
2023/10/16 06:50:46;;;;;;;11.23;9.40;;;4.60;99.90;;;;;;5005126;28;20507;-71
2023/10/16 06:53:12;;;;;;;10.45;9.35;;;4.50;99.90;;;;;;5006088;28;20436;-71
2023/10/16 06:55:40;;;;;;;12.77;9.88;;;4.40;99.90;;;;;;4999426;28;20452;-71
2023/10/16 06:58:06;;;;;;;9.52;8.63;;;4.40;99.90;;;;;;5001963;28;20879;-71
2023/10/16 07:00:33;;;;;;;9.20;8.40;;;4.40;99.90;;;;;;5006121;28;20430;-71
2023/10/16 07:03:06;;;;;;;11.13;10.02;;;4.40;99.90;;;;;;4999784;28;20454;-71
2023/10/16 07:05:43;;;;;;;10.75;9.75;;;4.40;99.90;;;;;;5004637;28;20425;-71
2023/10/16 07:08:11;;;;;;;10.13;9.13;;;4.40;99.90;;;;;;4998022;28;20923;-71
2023/10/16 07:10:42;;;;;;;11.30;10.10;;;4.40;99.90;;;;;;5002722;28;20427;-72
2023/10/16 07:13:09;;;;;;;10.65;9.65;;;4.50;99.90;;;;;;5013744;28;20533;-70
2023/10/16 07:15:35;;;;;;;8.90;8.10;;;4.50;99.90;;;;;;5007417;28;20454;-71
2023/10/16 07:18:04;;;;;;;9.80;8.52;;;4.50;99.90;;;;;;5001126;28;20761;-71
2023/10/16 07:20:31;;;;;;;9.90;8.20;;;4.50;99.90;;;;;;5008888;28;20437;-71
2023/10/16 07:23:00;;;;;;;10.10;9.02;;;4.50;99.90;;;;;;4999956;28;20426;-70
2023/10/16 07:25:37;;;;;;;10.00;8.98;;;4.60;99.90;;;;;;5012571;28;20496;-71
2023/10/16 07:28:09;;;;;;;9.88;8.98;;;4.60;99.90;;;;;;4999472;28;20515;-71
2023/10/16 07:30:36;;;;;;;10.05;9.15;;;4.70;99.90;;;;;;5007930;28;20447;-71
2023/10/16 07:33:03;;;;;;;10.80;9.70;;;4.70;99.90;;;;;;5011320;28;20414;-71
2023/10/16 07:35:30;;;;;;;10.40;9.40;;;4.80;99.90;;;;;;5011172;28;20432;-70
2023/10/16 07:37:58;;;;;;;9.70;8.80;;;4.90;99.90;;;;;;5012357;28;20795;-71
2023/10/16 07:40:25;;;;;;;9.90;8.40;;;4.90;99.90;;;;;;5001705;28;20765;-71
2023/10/16 07:42:54;;;;;;;9.07;8.20;;;4.90;99.90;;;;;;5006979;28;20836;-71
2023/10/16 07:45:20;;;;;;;8.75;7.95;;;4.90;99.90;;;;;;5002062;28;20793;-70
2023/10/16 07:47:48;;;;;;;7.70;6.93;;;5.00;99.90;;;;;;5013594;28;20488;-71
2023/10/16 07:50:16;;;;;;;8.30;7.50;;;5.00;99.90;;;;;;5008128;28;20520;-71
2023/10/16 07:52:43;;;;;;;8.50;7.70;;;5.00;99.90;;;;;;5010215;28;20984;-71
2023/10/16 07:55:18;;;;;;;7.80;7.10;;;5.00;99.90;;;;;;4999611;28;20737;-71
2023/10/16 07:57:45;;;;;;;8.00;7.20;;;5.10;99.90;;;;;;5005979;28;20436;-71
2023/10/16 08:00:14;;;;;;;8.90;8.10;;;5.10;99.90;;;;;;4992719;28;20428;-71
2023/10/16 08:02:45;;;;;;;8.90;8.00;;;5.10;99.90;;;;;;5001728;28;20440;-71
2023/10/16 08:05:15;;;;;;;9.15;8.35;;;5.10;99.90;;;;;;5003912;28;20441;-71
2023/10/16 08:07:47;;;;;;;9.10;8.30;;;5.10;99.90;;;;;;4995291;28;20445;-71
2023/10/16 08:10:41;;;;;;;9.20;8.40;;;5.20;99.90;;;;;;4997330;28;20412;-71
2023/10/16 08:13:12;;;;;;;9.00;8.20;;;5.20;99.90;;;;;;4996484;28;20776;-71
2023/10/16 08:15:44;;;;;;;10.20;9.20;;;5.20;99.90;;;;;;4993681;28;20444;-71
2023/10/16 08:18:12;;;;;;;10.60;9.60;;;5.30;99.90;;;;;;5008675;28;20516;-71
2023/10/16 08:20:50;;;;;;;10.52;9.55;;;5.20;99.90;;;;;;5010881;28;20501;-71
2023/10/16 08:23:17;;;;;;;10.30;9.30;;;5.30;99.90;;;;;;4997118;28;20584;-71
2023/10/16 08:25:45;;;;;;;10.90;9.90;;;5.30;99.90;;;;;;5006447;28;20436;-71
2023/10/16 08:28:21;;;;;;;10.10;9.20;;;5.30;99.90;;;;;;5014743;28;20425;-71
2023/10/16 08:30:52;;;;;;;10.50;9.50;;;5.30;99.90;;;;;;5012318;28;20460;-78
2023/10/16 08:33:28;;;;;;;10.27;9.27;;;5.40;99.90;;;;;;5004655;28;20413;-71
2023/10/16 08:35:58;;;;;;;10.80;9.75;;;5.50;99.90;;;;;;4999001;28;20454;-71
2023/10/16 08:38:26;;;;;;;10.60;9.55;;;5.50;99.90;;;;;;5009282;28;20453;-71
2023/10/16 08:41:05;;;;;;;10.30;9.30;;;5.60;99.90;;;;;;4992577;28;20852;-71
2023/10/16 08:43:39;;;;;;;11.30;10.18;;;5.60;99.90;;;;;;4991758;28;20790;-72
2023/10/16 08:46:18;;;;;;;12.10;10.90;;;5.70;99.90;;;;;;5001637;28;20945;-76
2023/10/16 08:48:45;;;;;;;12.73;10.75;;;5.70;99.90;;;;;;5012958;28;20466;-72
2023/10/16 08:51:16;;;;;;;11.50;10.40;;;5.60;99.90;;;;;;5013621;28;20430;-72
2023/10/16 08:53:43;;;;;;;11.85;10.65;;;5.70;99.90;;;;;;5009233;28;20914;-71
2023/10/16 08:56:12;;;;;;;12.00;10.70;;;5.80;99.90;;;;;;5014752;28;20431;-72
2023/10/16 08:58:40;;;;;;;12.10;10.90;;;5.80;99.90;;;;;;5006366;28;20765;-72
2023/10/16 09:01:11;;;;;;;11.85;10.65;;;5.90;99.90;;;;;;5007567;28;20523;-72
2023/10/16 09:03:40;;;;;;;11.93;10.70;;;6.00;99.90;;;;;;5016624;28;20526;-72
2023/10/16 09:06:07;;;;;;;12.18;10.52;;;6.00;99.90;;;;;;5005308;28;20921;-72
2023/10/16 09:08:35;;;;;;;12.32;11.02;;;6.10;99.90;;;;;;5001931;28;20810;-71
2023/10/16 09:11:05;;;;;;;12.07;10.70;;;6.20;99.90;;;;;;5001561;28;20453;-72
2023/10/16 09:13:35;;;;;;;13.68;11.45;;;6.20;99.90;;;;;;5020939;28;20839;-72
2023/10/16 09:16:03;;;;;;;14.43;11.30;;;6.20;99.90;;;;;;4999378;28;20979;-71
2023/10/16 09:18:31;;;;;;;15.15;12.43;;;6.20;99.90;;;;;;5024505;28;20426;-72
2023/10/16 09:21:00;;;;;;;13.77;12.27;;;6.30;99.90;;;;;;5008504;28;20432;-71
2023/10/16 09:23:36;;;;;;;14.57;12.83;;;6.40;99.90;;;;;;5021222;28;20661;-71
2023/10/16 09:26:06;;;;;;;15.73;12.47;;;6.40;99.90;;;;;;4998539;28;20440;-71
2023/10/16 09:28:33;;;;;;;14.25;12.75;;;6.40;99.90;;;;;;5005720;28;20432;-71
2023/10/16 09:31:02;;;;;;;14.63;13.10;;;6.50;99.90;;;;;;5003823;28;20432;-71
2023/10/16 09:33:28;;;;;;;15.15;12.68;;;6.60;99.90;;;;;;5011014;28;20424;-71
2023/10/16 09:36:00;;;;;;;14.35;12.55;;;6.70;99.90;;;;;;5003720;28;20444;-71
2023/10/16 09:38:32;;;;;;;15.27;13.05;;;6.90;99.90;;;;;;4994263;28;20429;-71
2023/10/16 09:41:37;;;;;;;13.50;12.10;;;7.00;99.90;;;;;;4999588;28;20435;-71
2023/10/16 09:44:07;;;;;;;13.63;12.32;;;7.30;99.90;;;;;;5019404;28;20562;-70
2023/10/16 09:46:48;;;;;;;13.90;11.73;;;7.50;99.90;;;;;;5014755;28;20438;-71
2023/10/16 09:49:21;;;;;;;15.02;11.70;;;7.80;99.90;;;;;;4997284;28;20572;-71
2023/10/16 09:51:49;;;;;;;13.07;11.68;;;8.00;99.90;;;;;;5008379;28;20436;-71
2023/10/16 09:54:15;;;;;;;13.65;10.95;;;8.30;99.90;;;;;;5005677;28;20428;-71
2023/10/16 09:56:45;;;;;;;11.60;10.30;;;8.50;99.90;;;;;;5008121;28;20412;-71
2023/10/16 09:59:26;;;;;;;11.45;9.70;;;8.90;99.90;;;;;;5007030;28;20430;-71
2023/10/16 10:01:55;;;;;;;10.20;9.07;;;9.20;99.70;;;;;;5003376;28;20505;-71
2023/10/16 10:04:24;;;;;;;11.35;9.90;;;9.30;98.60;;;;;;5002670;28;20438;-71
2023/10/16 10:06:57;;;;;;;12.35;10.30;;;9.40;98.40;;;;;;5005269;28;20448;-72
2023/10/16 10:09:41;;;;;;;12.38;9.90;;;9.60;98.30;;;;;;5004674;28;20430;-71
2023/10/16 10:12:23;;;;;;;10.77;9.68;;;9.90;98.20;;;;;;5015267;28;20892;-71
2023/10/16 10:15:01;;;;;;;12.80;9.18;;;10.20;97.70;;;;;;5000204;28;20461;-71
2023/10/16 10:17:29;;;;;;;11.00;9.80;;;10.50;96.60;;;;;;5009306;28;20926;-71
2023/10/16 10:20:08;;;;;;;11.55;9.82;;;10.70;94.90;;;;;;5011066;28;20416;-71
2023/10/16 10:22:38;;;;;;;10.45;9.00;;;10.80;94.80;;;;;;5005640;28;20500;-71
2023/10/16 10:25:16;;;;;;;11.55;8.88;;;11.00;94.10;;;;;;5013799;28;20446;-71
2023/10/16 10:27:44;;;;;;;10.32;9.23;;;11.20;93.80;;;;;;4995932;28;22456;-71
2023/10/16 10:30:18;;;;;;;10.82;9.82;;;11.50;93.20;;;;;;5004503;28;20436;-72
2023/10/16 10:32:55;;;;;;;10.43;9.40;;;11.70;92.60;;;;;;5002634;28;20419;-71
2023/10/16 10:35:26;;;;;;;11.18;9.65;;;11.80;91.80;;;;;;4998097;28;20512;-71
2023/10/16 10:38:17;;;;;;;10.63;9.52;;;11.80;92.00;;;;;;5006063;28;20922;-71
2023/10/16 10:41:14;;;;;;;11.00;9.90;;;12.00;91.50;;;;;;4999639;28;20447;-66
2023/10/16 10:43:46;;;;;;;11.45;10.38;;;12.10;90.60;;;;;;4989784;28;20437;-66
2023/10/16 10:46:14;;;;;;;10.77;9.77;;;12.20;91.70;;;;;;4997140;28;20885;-71
2023/10/16 10:48:43;;;;;;;10.70;9.70;;;12.30;91.10;;;;;;5004776;28;20526;-72
2023/10/16 10:51:13;;;;;;;10.18;9.38;;;12.40;90.40;;;;;;5009307;28;20437;-71
2023/10/16 10:53:54;;;;;;;12.23;9.52;;;12.40;90.30;;;;;;5005394;28;20614;-71
2023/10/16 10:56:21;;;;;;;11.18;10.07;;;12.60;90.40;;;;;;5001033;28;20903;-72
2023/10/16 10:58:50;;;;;;;10.95;9.85;;;12.70;89.00;;;;;;5003386;28;20427;-72
2023/10/16 11:01:26;;;;;;;11.30;10.15;;;12.90;88.40;;;;;;4997401;28;20434;-69
2023/10/16 11:03:55;;;;;;;11.45;10.35;;;13.00;88.00;;;;;;5004429;28;20444;-70
2023/10/16 11:06:31;;;;;;;12.02;10.05;;;13.40;86.80;;;;;;5002213;28;20440;-69
2023/10/16 11:09:11;;;;;;;11.15;10.05;;;13.40;84.70;;;;;;5006240;28;20436;-69
2023/10/16 11:11:40;;;;;;;11.80;10.60;;;13.40;85.20;;;;;;5004828;28;20430;-69
2023/10/16 11:14:08;;;;;;;12.02;10.90;;;13.40;84.10;;;;;;5003104;28;21024;-70
2023/10/16 11:16:42;;;;;;;12.77;11.48;;;13.30;84.90;;;;;;4995947;28;20891;-69
2023/10/16 11:19:09;;;;;;;12.25;10.88;;;13.30;84.90;;;;;;5006921;28;20488;-69
2023/10/16 11:21:43;;;;;;;11.97;10.77;;;13.20;84.60;;;;;;5006402;28;20498;-69
2023/10/16 11:24:13;;;;;;;12.10;10.90;;;13.20;85.20;;;;;;5002899;28;20436;-69
2023/10/16 11:26:40;;;;;;;11.30;10.20;;;13.40;84.60;;;;;;5006235;28;20594;-69
2023/10/16 11:29:12;;;;;;;11.80;10.60;;;13.60;85.00;;;;;;5002507;28;20433;-69
2023/10/16 11:31:41;;;;;;;11.88;10.68;;;13.70;82.60;;;;;;5001270;28;20694;-69
2023/10/16 11:34:12;;;;;;;11.70;10.60;;;13.50;82.40;;;;;;5009390;28;20557;-69
2023/10/16 11:36:40;;;;;;;12.32;11.13;;;13.30;83.60;;;;;;4995722;28;20497;-69
2023/10/16 11:39:08;;;;;;;12.43;11.20;;;13.30;82.70;;;;;;5014361;28;20470;-69
2023/10/16 11:41:37;;;;;;;11.30;10.10;;;13.20;84.20;;;;;;5001174;28;20534;-69
2023/10/16 11:44:13;;;;;;;11.52;10.45;;;13.20;84.10;;;;;;5003516;28;20470;-69
2023/10/16 11:46:46;;;;;;;11.27;10.10;;;13.30;84.00;;;;;;5011776;28;20877;-68
2023/10/16 11:49:29;;;;;;;10.70;9.60;;;13.30;83.80;;;;;;4995014;28;20442;-68
2023/10/16 11:51:59;;;;;;;10.82;9.80;;;13.40;82.80;;;;;;5009867;28;20926;-68
2023/10/16 11:54:28;;;;;;;11.13;10.02;;;13.50;82.20;;;;;;5015223;28;20901;-69
2023/10/16 11:56:59;;;;;;;11.00;10.00;;;13.50;80.20;;;;;;5008445;28;20441;-69
2023/10/16 11:59:29;;;;;;;9.57;8.57;;;13.50;80.70;;;;;;5001351;28;20820;-68
2023/10/16 12:01:59;;;;;;;9.38;8.48;;;13.60;81.40;;;;;;4996041;28;20930;-68
2023/10/16 12:04:26;;;;;;;10.70;9.60;;;13.80;80.60;;;;;;5006302;28;20523;-69
2023/10/16 12:06:54;;;;;;;10.85;9.60;;;13.90;79.90;;;;;;4992036;28;20785;-68
2023/10/16 12:09:21;;;;;;;10.35;9.38;;;13.90;78.80;;;;;;4996902;28;20518;-68
2023/10/16 12:11:49;;;;;;;9.68;8.77;;;13.80;77.80;;;;;;5002413;28;20463;-69
2023/10/16 12:14:17;;;;;;;10.50;9.40;;;13.80;78.70;;;;;;4995628;28;20426;-69
2023/10/16 12:16:46;;;;;;;10.38;9.48;;;13.80;78.40;;;;;;5008427;28;20890;-68
2023/10/16 12:19:14;;;;;;;11.20;10.10;;;13.70;76.10;;;;;;5000459;28;20428;-69
2023/10/16 12:21:40;;;;;;;11.43;10.23;;;13.60;80.10;;;;;;5001292;28;20445;-68
2023/10/16 12:24:09;;;;;;;11.45;10.23;;;13.60;80.10;;;;;;5002660;28;20910;-68
2023/10/16 12:26:36;;;;;;;10.80;9.80;;;13.70;78.40;;;;;;5005897;28;20892;-67
2023/10/16 12:29:03;;;;;;;10.88;9.80;;;13.70;80.00;;;;;;5008955;28;20532;-69
2023/10/16 12:31:31;;;;;;;10.70;9.70;;;13.70;79.40;;;;;;5014459;28;20459;-69
2023/10/16 12:33:59;;;;;;;11.25;10.25;;;13.70;79.30;;;;;;5000949;28;20929;-69
2023/10/16 12:36:26;;;;;;;10.73;9.73;;;13.50;79.50;;;;;;5006260;28;20469;-69
2023/10/16 12:38:54;;;;;;;11.02;10.02;;;13.30;80.90;;;;;;5016482;28;20448;-71
2023/10/16 12:41:21;;;;;;;10.40;9.50;;;13.20;82.50;;;;;;5007922;28;20434;-70
2023/10/16 12:43:49;;;;;;;10.18;9.18;;;13.20;83.90;;;;;;4998581;28;20954;-69
2023/10/16 12:46:15;;;;;;;9.05;8.15;;;13.30;81.30;;;;;;5002132;28;20555;-70
2023/10/16 12:48:44;;;;;;;9.27;8.43;;;13.30;81.70;;;;;;5015743;28;20436;-70
2023/10/16 12:51:11;;;;;;;11.82;9.55;;;13.40;80.50;;;;;;5008441;28;20508;-69
2023/10/16 12:53:38;;;;;;;9.00;7.70;;;13.40;82.10;;;;;;5012159;28;20518;-69
2023/10/16 12:56:06;;;;;;;8.87;8.07;;;13.40;81.90;;;;;;5014820;28;20874;-70
2023/10/16 12:58:33;;;;;;;8.75;7.72;;;13.40;79.80;;;;;;5004531;28;20522;-69
2023/10/16 13:01:00;;;;;;;8.90;8.10;;;13.50;79.70;;;;;;4996003;28;20792;-69
2023/10/16 13:03:27;;;;;;;7.97;7.22;;;13.60;79.70;;;;;;5012323;28;20431;-70
2023/10/16 13:05:55;;;;;;;8.40;7.60;;;13.60;79.00;;;;;;5014379;28;20441;-69
2023/10/16 13:08:22;;;;;;;8.30;6.60;;;13.60;77.90;;;;;;5004393;28;20910;-69
2023/10/16 13:10:50;;;;;;;6.80;6.10;;;13.50;77.70;;;;;;4998948;28;20434;-68
2023/10/16 13:13:20;;;;;;;6.78;5.82;;;13.50;78.70;;;;;;5002224;28;20461;-69
2023/10/16 13:15:51;;;;;;;6.30;5.70;;;13.60;76.70;;;;;;5007449;28;20851;-69
2023/10/16 13:18:26;;;;;;;7.88;7.07;;;13.60;78.30;;;;;;5005137;28;20439;-70
2023/10/16 13:20:57;;;;;;;7.70;6.80;;;13.70;77.60;;;;;;4996430;28;20479;-69
2023/10/16 13:23:25;;;;;;;7.10;6.40;;;13.70;76.00;;;;;;5004271;28;20440;-69
2023/10/16 13:25:56;;;;;;;7.13;6.38;;;13.70;77.50;;;;;;5007419;28;20468;-69
2023/10/16 13:28:23;;;;;;;7.07;6.38;;;13.70;77.20;;;;;;4998721;28;21598;-69
2023/10/16 13:30:51;;;;;;;7.55;6.70;;;13.70;78.50;;;;;;5007334;28;20463;-69
2023/10/16 13:33:18;;;;;;;7.55;6.75;;;13.80;78.90;;;;;;5005562;28;20550;-69
2023/10/16 13:35:45;;;;;;;7.22;6.38;;;13.70;77.40;;;;;;5007238;28;20875;-69
2023/10/16 13:38:13;;;;;;;7.05;6.13;;;13.70;77.40;;;;;;5000387;28;20441;-69
2023/10/16 13:40:43;;;;;;;7.50;5.80;;;13.70;78.90;;;;;;5004278;28;20424;-69
2023/10/16 13:43:11;;;;;;;6.60;5.70;;;13.70;77.00;;;;;;5010437;28;20435;-69
2023/10/16 13:45:38;;;;;;;7.38;5.72;;;13.70;77.40;;;;;;4999257;28;20481;-69
2023/10/16 13:48:09;;;;;;;6.32;4.80;;;13.60;78.50;;;;;;4996740;28;20441;-69
2023/10/16 13:50:37;;;;;;;6.32;5.40;;;13.60;78.10;;;;;;5007478;28;20539;-70
2023/10/16 13:53:04;;;;;;;6.13;5.15;;;13.60;77.80;;;;;;5012111;28;20933;-71
2023/10/16 13:55:32;;;;;;;6.68;5.25;;;13.60;75.30;;;;;;5013540;28;20440;-72
2023/10/16 13:57:59;;;;;;;5.15;4.65;;;13.50;75.00;;;;;;5002205;28;20549;-71
2023/10/16 14:00:35;;;;;;;5.43;4.85;;;13.40;75.50;;;;;;5015434;28;20818;-72
2023/10/16 14:03:05;;;;;;;5.43;4.80;;;13.30;76.90;;;;;;5003732;28;20440;-71
2023/10/16 14:05:35;;;;;;;5.50;4.90;;;13.30;76.50;;;;;;5008737;28;20431;-72
2023/10/16 14:08:03;;;;;;;4.78;4.28;;;13.30;77.20;;;;;;5006567;28;20460;-71
2023/10/16 14:10:29;;;;;;;5.33;4.17;;;13.30;74.40;;;;;;5008650;28;20586;-71
2023/10/16 14:13:00;;;;;;;6.05;4.40;;;13.30;75.90;;;;;;5009864;28;20428;-71
2023/10/16 14:15:32;;;;;;;4.60;4.20;;;13.40;77.50;;;;;;5006652;28;20542;-71
2023/10/16 14:18:00;;;;;;;5.03;4.53;;;13.50;76.60;;;;;;5012621;28;20551;-71